Time;durP1;ratioP1;P1;durP2;ratioP2;P2;SDS_P1;SDS_P2;PMS_P1;PMS_P2;Temp;Humidity;BMP_temperature;BMP_pressure;BME280_temperature;BME280_humidity;BME280_pressure;Samples;Min_cycle;Max_cycle;Signal;HPM_P1;HPM_P2
2023/05/24 00:01:56;;;;;;;11.90;7.80;;;;;;;23.13;60.95;99774.27;1658715;86;21371;-84
2023/05/24 00:05:02;;;;;;;19.07;8.00;;;;;;;23.23;60.97;99770.67;1658608;86;21900;-84
2023/05/24 00:08:07;;;;;;;13.28;7.37;;;;;;;23.14;61.33;99773.98;1658226;86;21323;-83
2023/05/24 00:11:14;;;;;;;12.95;7.53;;;;;;;23.10;61.61;99770.61;1658474;86;21318;-83
2023/05/24 00:14:19;;;;;;;16.80;8.25;;;;;;;23.08;61.85;99774.23;1657304;86;21926;-82
2023/05/24 00:17:28;;;;;;;15.53;7.78;;;;;;;23.04;62.14;99778.12;1657345;86;21385;-84
2023/05/24 00:20:34;;;;;;;17.90;8.55;;;;;;;23.20;61.62;99777.09;1658360;86;21311;-83
2023/05/24 00:23:42;;;;;;;11.28;7.25;;;;;;;22.87;62.61;99780.25;1657017;85;21338;-83
2023/05/24 00:26:49;;;;;;;11.83;6.95;;;;;;;23.19;61.34;99788.50;1658589;86;21339;-83
2023/05/24 00:29:54;;;;;;;9.85;6.72;;;;;;;23.36;60.11;99788.31;1658682;86;21306;-83
2023/05/24 00:33:00;;;;;;;14.18;6.30;;;;;;;23.35;59.78;99783.29;1658592;86;21331;-83
2023/05/24 00:36:05;;;;;;;10.15;6.00;;;;;;;23.32;59.65;99776.02;1643952;86;21319;-83
2023/05/24 00:39:11;;;;;;;11.05;6.53;;;;;;;23.55;58.43;99776.93;1658751;86;21307;-83
2023/05/24 00:42:18;;;;;;;10.98;6.28;;;;;;;23.52;57.84;99774.67;1658600;86;21374;-83
2023/05/24 00:45:23;;;;;;;10.28;6.33;;;;;;;23.50;57.49;99772.73;1658594;86;21319;-83
2023/05/24 00:48:31;;;;;;;10.58;6.35;;;;;;;23.23;58.10;99768.72;1657770;86;21350;-84
2023/05/24 00:51:37;;;;;;;11.57;6.55;;;;;;;22.79;59.25;99769.59;1658203;86;21342;-83
2023/05/24 00:54:42;;;;;;;11.90;6.40;;;;;;;22.21;60.53;99765.30;1658502;86;21375;-83
2023/05/24 00:57:49;;;;;;;12.33;6.70;;;;;;;22.53;59.60;99761.61;1656996;86;21385;-83
2023/05/24 01:00:58;;;;;;;11.65;6.00;;;;;;;22.70;59.02;99760.89;1657860;86;21327;-83
2023/05/24 01:04:03;;;;;;;9.73;6.12;;;;;;;22.64;58.98;99758.64;1657803;86;21327;-83
2023/05/24 01:07:37;;;;;;;9.25;6.35;;;;;;;22.91;57.96;99752.11;1657228;86;22061;-83
2023/05/24 01:11:07;;;;;;;14.38;5.83;;;;;;;22.63;58.37;99748.60;1627529;86;21355;-83
2023/05/24 01:14:29;;;;;;;;;;;;;;;22.67;57.85;99747.48;1660852;86;21307;-83
2023/05/24 01:17:30;;;;;;;11.05;5.95;;;;;;;22.27;58.54;99744.72;1657673;86;20271;-83
2023/05/24 01:20:39;;;;;;;12.13;6.58;;;;;;;22.23;58.13;99750.53;1657733;86;22230;-83
2023/05/24 01:24:02;;;;;;;11.80;5.95;;;;;;;22.43;57.84;99748.45;1658355;85;21872;-83
2023/05/24 01:27:15;;;;;;;11.00;6.25;;;;;;;22.28;57.93;99745.56;1608631;89;21903;-84
2023/05/24 01:30:20;;;;;;;8.38;5.80;;;;;;;21.96;59.12;99747.77;1594628;89;21891;-83
2023/05/24 01:33:26;;;;;;;10.30;5.83;;;;;;;21.96;59.23;99746.38;1608749;89;21323;-83
2023/05/24 01:36:31;;;;;;;11.38;5.87;;;;;;;21.97;58.31;99753.61;1608548;89;21326;-83
2023/05/24 01:39:37;;;;;;;19.60;9.50;;;;;;;21.89;58.80;99752.17;1594867;89;21311;-83
2023/05/24 01:42:55;;;;;;;49.13;11.28;;;;;;;21.87;58.80;99747.95;1608623;89;21341;-83
2023/05/24 01:46:32;;;;;;;90.28;11.15;;;;;;;21.75;59.07;99743.97;1597260;88;21340;-83
2023/05/24 01:49:40;;;;;;;67.37;11.10;;;;;;;21.83;59.66;99741.23;1607276;89;21357;-82
2023/05/24 01:52:47;;;;;;;50.15;12.10;;;;;;;22.02;59.38;99734.72;1607509;89;21350;-83
2023/05/24 01:55:55;;;;;;;45.28;12.47;;;;;;;21.89;59.93;99731.30;1608565;89;21317;-84
2023/05/24 01:59:01;;;;;;;19.05;12.53;;;;;;;21.95;59.40;99737.73;1608639;89;21878;-84
2023/05/24 02:02:06;;;;;;;19.50;11.20;;;;;;;21.89;59.52;99736.86;1608681;89;21911;-84
2023/05/24 02:05:13;;;;;;;12.70;9.13;;;;;;;21.88;59.61;99731.01;1608618;89;21326;-84
2023/05/24 02:08:18;;;;;;;9.23;6.28;;;;;;;21.73;59.92;99745.31;1608030;89;21323;-84
2023/05/24 02:11:23;;;;;;;13.00;6.00;;;;;;;21.75;59.30;99750.09;1610856;89;21345;-84
2023/05/24 02:14:30;;;;;;;12.75;8.18;;;;;;;21.72;59.14;99755.61;1608589;89;21223;-84
2023/05/24 02:17:36;;;;;;;11.53;7.95;;;;;;;21.83;58.46;99761.59;1608249;89;21337;-84
2023/05/24 02:20:43;;;;;;;9.38;6.83;;;;;;;21.88;58.37;99760.80;1608482;89;21910;-84
2023/05/24 02:23:49;;;;;;;9.38;6.83;;;;;;;21.88;59.28;99765.81;1608328;89;21863;-84
2023/05/24 02:26:54;;;;;;;10.70;6.65;;;;;;;21.69;60.21;99772.30;1604182;88;21321;-84
2023/05/24 02:30:01;;;;;;;9.63;6.90;;;;;;;21.60;60.98;99773.03;1621159;88;21361;-84
2023/05/24 02:33:07;;;;;;;10.32;7.08;;;;;;;21.93;59.71;99765.02;1621120;88;21388;-84
2023/05/24 02:36:13;;;;;;;10.00;6.53;;;;;;;22.30;58.61;99762.83;1621230;88;21819;-84
2023/05/24 02:39:18;;;;;;;9.28;6.55;;;;;;;22.43;57.34;99769.34;1621554;88;21333;-84
2023/05/24 02:42:24;;;;;;;12.28;6.58;;;;;;;22.17;57.47;99773.34;1621796;88;21389;-84
2023/05/24 02:45:29;;;;;;;9.93;5.92;;;;;;;22.38;56.69;99779.06;1621775;88;21341;-84
2023/05/24 02:48:35;;;;;;;10.25;6.60;;;;;;;22.64;56.19;99783.72;1607867;88;21305;-84
2023/05/24 02:51:27;;;;;;;10.20;6.22;;;;;;;22.58;56.96;99788.95;1621936;88;21305;-84
2023/05/24 02:54:33;;;;;;;9.33;6.10;;;;;;;22.86;57.18;99786.35;1600325;88;21907;-85
2023/05/24 02:57:40;;;;;;;8.33;6.00;;;;;;;23.12;57.60;99792.95;1624551;88;21897;-85
2023/05/24 03:00:47;;;;;;;11.15;6.00;;;;;;;23.36;57.43;99798.08;1621766;88;21309;-85
2023/05/24 03:03:52;;;;;;;10.63;5.75;;;;;;;23.46;56.99;99796.16;1621781;88;21855;-85
2023/05/24 03:06:58;;;;;;;8.10;5.90;;;;;;;23.55;56.95;99804.00;1621723;88;21313;-84
2023/05/24 03:10:04;;;;;;;8.05;5.37;;;;;;;23.48;57.03;99804.27;1621766;88;21356;-85
2023/05/24 03:13:10;;;;;;;10.28;5.62;;;;;;;23.67;56.94;99806.88;1621681;88;21340;-84
2023/05/24 05:39:10;;;;;;;9.60;4.33;;;;;;;30.34;43.53;99813.41;1655808;85;21768;-85
2023/05/24 05:42:18;;;;;;;7.75;4.28;;;;;;;30.28;43.46;99813.55;1654503;85;21323;-84
2023/05/24 05:45:24;;;;;;;15.28;5.83;;;;;;;30.46;43.20;99817.92;1647112;85;21327;-85
2023/05/24 05:48:30;;;;;;;3.87;3.17;;;;;;;30.29;42.95;99813.80;1657169;85;21757;-86
2023/05/24 05:51:37;;;;;;;7.15;3.30;;;;;;;30.28;42.88;99824.83;1665160;85;21335;-87
2023/05/24 05:54:46;;;;;;;6.83;2.50;;;;;;;30.20;42.76;99826.98;1654048;85;21251;-87
2023/05/24 05:57:52;;;;;;;5.92;2.90;;;;;;;30.43;42.20;99831.24;1657132;85;21316;-86
2023/05/24 06:00:59;;;;;;;8.18;2.42;;;;;;;30.40;41.84;99833.31;1657446;85;21311;-88
2023/05/24 06:04:05;;;;;;;4.17;2.85;;;;;;;30.23;41.93;99836.81;1648636;85;21354;-86
2023/05/24 06:07:12;;;;;;;5.97;2.72;;;;;;;30.14;42.61;99833.91;1660745;85;21295;-86
2023/05/24 06:10:19;;;;;;;7.70;2.70;;;;;;;29.58;43.75;99843.59;1653143;85;22217;-86
2023/05/24 06:13:27;;;;;;;7.33;3.05;;;;;;;29.68;43.98;99842.53;1651597;85;21769;-85
2023/05/24 06:16:34;;;;;;;9.28;3.35;;;;;;;29.67;43.65;99831.84;1661141;85;21410;-86
2023/05/24 06:19:32;;;;;;;7.65;4.45;;;;;;;29.35;44.54;99837.56;1660209;85;21324;-86
2023/05/24 06:22:38;;;;;;;7.95;3.72;;;;;;;29.22;45.68;99835.85;1658979;85;21359;-86
2023/05/24 06:25:46;;;;;;;4.60;2.58;;;;;;;29.48;45.43;99838.97;1665135;85;21335;-86
2023/05/24 13:15:27;;;;;;;22.93;6.92;;;;;;;23.80;61.18;99789.30;1755632;79;28619;-82
2023/05/24 13:18:33;;;;;;;18.17;6.42;;;;;;;23.83;60.15;99795.73;1717483;82;21843;-82
2023/05/24 13:21:40;;;;;;;17.48;5.97;;;;;;;23.91;59.74;99799.39;1715393;83;21326;-82
2023/05/24 13:24:46;;;;;;;15.40;5.15;;;;;;;23.87;58.34;99799.09;1729627;81;22262;-82
2023/05/24 13:27:52;;;;;;;13.58;5.35;;;;;;;23.77;60.13;99798.25;1730357;83;21345;-82
2023/05/24 13:30:59;;;;;;;8.03;4.30;;;;;;;24.04;60.05;99800.78;1730225;83;21275;-81
2023/05/24 13:34:04;;;;;;;17.25;5.03;;;;;;;24.00;59.93;99799.69;1729004;81;21373;-82
2023/05/24 13:37:10;;;;;;;14.50;5.17;;;;;;;24.25;59.65;99800.27;1729334;83;21333;-82
2023/05/24 13:40:17;;;;;;;13.88;4.70;;;;;;;24.37;59.50;99800.84;1729507;81;21962;-82
2023/05/24 13:43:23;;;;;;;12.15;4.60;;;;;;;24.63;58.24;99802.51;1729532;81;21294;-82
2023/05/24 13:46:29;;;;;;;9.83;3.62;;;;;;;24.67;56.85;99802.23;1729847;83;21291;-82
2023/05/24 13:49:36;;;;;;;9.75;3.20;;;;;;;24.57;55.40;99798.05;1729811;81;21352;-82
2023/05/24 13:52:41;;;;;;;11.15;3.75;;;;;;;24.35;55.20;99796.91;1729843;83;21339;-81
2023/05/24 13:55:48;;;;;;;14.68;3.70;;;;;;;24.25;53.98;99789.92;1730980;83;21306;-83
2023/05/24 13:58:55;;;;;;;9.25;3.80;;;;;;;24.14;54.28;99798.03;1731160;81;21731;-82
2023/05/24 14:02:01;;;;;;;11.43;3.55;;;;;;;23.99;55.01;99800.22;1730336;83;21306;-83
2023/05/24 14:05:07;;;;;;;10.30;4.42;;;;;;;23.83;54.48;99794.34;1730511;81;21895;-81
2023/05/24 14:08:14;;;;;;;16.48;4.67;;;;;;;23.83;55.86;99791.55;1731309;83;21326;-81
2023/05/24 14:11:21;;;;;;;11.08;3.90;;;;;;;23.46;57.71;99796.72;1731598;83;21307;-82
2023/05/24 14:14:26;;;;;;;7.78;3.25;;;;;;;23.48;58.18;99800.09;1730906;81;21347;-82
2023/05/24 14:17:27;;;;;;;12.15;4.33;;;;;;;23.59;58.85;99800.39;1731355;83;21315;-82
2023/05/24 14:20:36;;;;;;;14.58;3.72;;;;;;;23.54;58.60;99798.98;1730158;81;21341;-82
2023/05/24 14:23:43;;;;;;;10.50;4.17;;;;;;;23.47;58.82;99802.02;1731638;81;21314;-81
2023/05/24 14:26:49;;;;;;;12.35;3.02;;;;;;;23.40;58.16;99807.02;1731364;83;21318;-81
2023/05/24 14:29:55;;;;;;;11.08;3.35;;;;;;;23.39;55.99;99806.75;1731429;81;21294;-82
2023/05/24 14:33:01;;;;;;;12.68;4.12;;;;;;;23.27;55.62;99799.16;1731565;83;21649;-82
2023/05/24 14:36:07;;;;;;;12.07;3.70;;;;;;;23.39;55.32;99793.36;1730192;83;21298;-82
2023/05/24 14:39:13;;;;;;;11.08;3.77;;;;;;;23.37;55.38;99790.81;1731182;81;21330;-82
2023/05/24 14:42:19;;;;;;;10.58;3.30;;;;;;;23.28;55.46;99799.98;1731588;83;21278;-82
2023/05/24 14:45:26;;;;;;;20.88;4.53;;;;;;;23.31;55.65;99807.27;1730315;81;21318;-82
2023/05/24 14:48:32;;;;;;;14.28;3.72;;;;;;;23.60;55.21;99802.63;1731616;81;21830;-82
2023/05/24 14:51:31;;;;;;;15.03;4.08;;;;;;;23.68;54.76;99802.97;1731513;83;21298;-82
2023/05/24 14:54:37;;;;;;;10.80;3.52;;;;;;;23.74;54.69;99806.61;1730962;81;21910;-82
2023/05/24 14:57:43;;;;;;;14.90;4.67;;;;;;;23.87;54.29;99812.23;1731737;83;21298;-82
2023/05/24 15:00:48;;;;;;;10.95;3.77;;;;;;;23.89;54.16;99823.95;1730808;83;21377;-82
2023/05/24 15:03:54;;;;;;;8.33;3.58;;;;;;;23.86;54.39;99812.79;1731452;81;21318;-82
2023/05/24 15:06:59;;;;;;;10.68;4.45;;;;;;;23.77;54.11;99809.41;1731529;83;21874;-82
2023/05/24 15:10:05;;;;;;;18.37;5.62;;;;;;;23.61;54.39;99805.13;1730723;81;21366;-83
2023/05/24 15:13:12;;;;;;;18.20;5.78;;;;;;;23.72;54.67;99804.66;1731559;83;21839;-83
2023/05/24 15:16:18;;;;;;;14.15;4.37;;;;;;;23.77;53.78;99808.02;1730471;82;21314;-83
2023/05/24 15:19:25;;;;;;;13.05;5.03;;;;;;;23.80;54.04;99804.09;1731174;81;21319;-83
2023/05/24 15:22:32;;;;;;;17.70;5.92;;;;;;;23.85;54.25;99807.45;1731599;83;21295;-83
2023/05/24 15:25:39;;;;;;;13.50;5.47;;;;;;;23.77;54.29;99803.83;1730278;81;21334;-82
2023/05/24 15:28:46;;;;;;;8.93;4.17;;;;;;;23.81;54.64;99800.78;1731622;81;21969;-82
2023/05/24 15:31:52;;;;;;;11.35;3.90;;;;;;;23.81;53.64;99789.61;1730421;83;21330;-82
2023/05/24 15:34:59;;;;;;;9.78;3.70;;;;;;;24.10;52.97;99797.73;1730713;81;21318;-83
2023/05/24 15:38:05;;;;;;;17.52;5.22;;;;;;;24.30;52.16;99786.29;1730303;83;21287;-83
2023/05/24 15:41:11;;;;;;;12.60;4.12;;;;;;;24.30;53.08;99779.30;1731604;83;21768;-82
2023/05/24 15:44:17;;;;;;;10.85;3.95;;;;;;;24.40;52.98;99787.15;1731150;81;21329;-82
2023/05/24 15:47:29;;;;;;;14.40;3.98;;;;;;;24.55;52.62;99781.27;1731540;83;21334;-82
2023/05/24 15:50:34;;;;;;;12.35;3.92;;;;;;;24.25;54.02;99782.09;1730350;81;21357;-82
2023/05/24 15:53:43;;;;;;;8.08;3.45;;;;;;;24.40;53.93;99789.11;1731432;81;21362;-82
2023/05/24 15:56:48;;;;;;;12.40;4.08;;;;;;;24.32;54.46;99791.86;1730606;83;21338;-82
2023/05/24 15:59:56;;;;;;;13.95;3.90;;;;;;;24.54;53.70;99789.38;1730677;81;21348;-82
2023/05/24 16:03:05;;;;;;;11.97;3.90;;;;;;;24.48;54.01;99791.34;1731564;83;21311;-82
2023/05/24 16:06:11;;;;;;;11.48;4.10;;;;;;;24.15;54.61;99787.97;1731011;83;21334;-83
2023/05/24 16:09:17;;;;;;;7.08;3.40;;;;;;;24.11;54.68;99786.84;1731274;81;21318;-82
2023/05/24 16:12:23;;;;;;;10.23;3.83;;;;;;;24.05;55.72;99788.52;1731564;83;21310;-82
2023/05/24 16:15:32;;;;;;;12.65;3.42;;;;;;;23.91;55.28;99793.25;1730318;81;21330;-82
2023/05/24 16:18:37;;;;;;;14.83;4.22;;;;;;;23.78;55.05;99791.55;1712537;82;21311;-83
2023/05/24 16:21:45;;;;;;;14.85;3.35;;;;;;;23.76;54.45;99790.43;1713212;84;21327;-83
2023/05/24 16:24:52;;;;;;;14.40;3.83;;;;;;;23.63;55.21;99787.56;1713579;82;21346;-82
2023/05/24 16:27:59;;;;;;;12.18;4.25;;;;;;;23.57;55.43;99788.67;1714476;84;21291;-82
2023/05/24 16:31:04;;;;;;;12.70;3.77;;;;;;;23.57;55.76;99784.48;1714327;84;21318;-82
2023/05/24 16:34:10;;;;;;;10.10;4.33;;;;;;;23.61;56.22;99784.20;1713968;82;21323;-83
2023/05/24 16:37:16;;;;;;;15.50;4.90;;;;;;;23.60;59.07;99790.06;1713553;83;21284;-82
2023/05/24 16:40:22;;;;;;;8.65;4.10;;;;;;;23.43;61.02;99787.48;1713206;82;21343;-82
2023/05/24 16:43:28;;;;;;;10.32;4.70;;;;;;;23.36;61.91;99792.50;1713091;82;21319;-82
2023/05/24 16:46:35;;;;;;;15.65;5.28;;;;;;;23.23;62.78;99798.57;1713988;84;21311;-82
2023/05/24 16:49:41;;;;;;;11.33;4.50;;;;;;;23.30;62.97;99799.17;1713867;82;21902;-82
2023/05/24 16:52:52;;;;;;;16.90;5.22;;;;;;;23.00;64.20;99802.08;1714497;84;21247;-82
2023/05/24 16:55:58;;;;;;;13.18;4.10;;;;;;;22.78;65.23;99803.61;1714375;84;21962;-82
2023/05/24 16:59:04;;;;;;;13.13;4.37;;;;;;;22.79;65.19;99810.02;1714005;82;21299;-82
2023/05/24 17:02:10;;;;;;;11.22;4.50;;;;;;;22.70;65.39;99814.70;1713920;84;21323;-83
2023/05/24 17:05:16;;;;;;;13.90;4.67;;;;;;;22.69;65.24;99819.99;1713097;82;21331;-82
2023/05/24 17:08:24;;;;;;;11.65;4.05;;;;;;;22.53;65.82;99820.97;1713091;82;21319;-82
2023/05/24 17:11:31;;;;;;;17.40;5.28;;;;;;;22.54;65.98;99825.46;1714268;84;21311;-82
2023/05/24 17:14:36;;;;;;;16.25;5.55;;;;;;;22.49;67.20;99828.73;1713665;82;21319;-82
2023/05/24 17:17:42;;;;;;;15.98;6.30;;;;;;;22.30;68.80;99831.09;1716640;81;21365;-82
2023/05/24 17:20:50;;;;;;;15.10;6.10;;;;;;;22.28;69.97;99836.09;1731658;83;21835;-83
2023/05/24 17:23:55;;;;;;;17.12;5.90;;;;;;;22.23;70.66;99840.23;1731407;81;21330;-83
2023/05/24 17:27:03;;;;;;;21.30;7.37;;;;;;;22.02;71.40;99842.80;1731213;83;21326;-82
2023/05/24 17:30:08;;;;;;;15.58;6.95;;;;;;;22.07;71.76;99840.06;1730536;81;21327;-82
2023/05/24 17:33:14;;;;;;;16.93;6.80;;;;;;;21.96;72.47;99834.08;1730768;83;21345;-82
2023/05/24 17:36:21;;;;;;;14.60;7.10;;;;;;;21.87;72.96;99836.48;1731559;83;21306;-81
2023/05/24 17:39:26;;;;;;;16.52;7.35;;;;;;;21.80;72.97;99841.44;1730991;81;21350;-82
2023/05/24 17:42:32;;;;;;;16.48;7.83;;;;;;;21.46;74.10;99844.94;1731495;83;21323;-83
2023/05/24 17:45:37;;;;;;;17.27;7.10;;;;;;;21.26;74.90;99851.58;1730194;81;21330;-82
2023/05/24 17:48:46;;;;;;;18.87;7.30;;;;;;;21.17;75.24;99853.95;1730113;81;21871;-82
2023/05/24 17:51:53;;;;;;;16.62;7.42;;;;;;;21.28;75.14;99862.75;1730722;83;21244;-82
2023/05/24 17:54:59;;;;;;;20.72;7.53;;;;;;;21.36;74.83;99871.20;1730743;81;21377;-83
2023/05/24 17:58:04;;;;;;;15.05;7.25;;;;;;;21.30;75.19;99868.05;1731104;83;21287;-82
2023/05/24 18:01:11;;;;;;;19.85;7.47;;;;;;;21.13;75.77;99872.28;1731781;83;21887;-81
2023/05/24 18:04:10;;;;;;;21.10;7.08;;;;;;;21.13;76.12;99866.16;1730523;81;21326;-82
2023/05/24 18:07:18;;;;;;;25.05;6.87;;;;;;;21.06;76.48;99878.55;1730617;83;21346;-83
2023/05/24 18:10:24;;;;;;;17.85;7.35;;;;;;;21.05;76.53;99883.83;1745898;82;21354;-83
2023/05/24 18:13:29;;;;;;;26.07;7.55;;;;;;;20.87;77.33;99877.99;1748344;82;21326;-83
2023/05/24 18:16:33;;;;;;;27.52;6.75;;;;;;;20.86;77.31;99886.05;1748797;82;21286;-82
2023/05/24 18:19:40;;;;;;;19.57;6.05;;;;;;;20.75;77.75;99880.88;1747678;81;21314;-82
2023/05/24 18:22:47;;;;;;;24.30;6.20;;;;;;;20.63;78.46;99882.89;1750143;82;21914;-82
2023/05/24 18:25:54;;;;;;;13.85;6.53;;;;;;;20.74;78.23;99887.52;1750001;82;21306;-82
2023/05/24 18:28:55;;;;;;;18.23;6.80;;;;;;;20.78;77.83;99889.25;1749179;82;21298;-82
2023/05/24 18:32:01;;;;;;;18.77;5.95;;;;;;;20.79;78.00;99895.93;1750153;82;21299;-82
2023/05/24 18:35:06;;;;;;;16.00;6.47;;;;;;;20.76;77.96;99899.23;1748769;82;21301;-82
2023/05/24 18:38:12;;;;;;;17.30;5.95;;;;;;;20.85;77.75;99896.88;1748647;82;21281;-82
2023/05/24 18:41:18;;;;;;;12.53;6.67;;;;;;;20.68;78.49;99892.70;1749949;82;21266;-82
2023/05/24 18:44:23;;;;;;;17.00;6.30;;;;;;;20.66;78.80;99897.13;1749409;82;21811;-82
2023/05/24 18:47:30;;;;;;;19.62;6.87;;;;;;;20.57;79.37;99895.87;1749839;82;21278;-82
2023/05/24 18:50:35;;;;;;;17.02;7.08;;;;;;;20.71;79.09;99901.09;1748533;82;21306;-82
2023/05/24 18:53:40;;;;;;;16.02;7.12;;;;;;;20.33;80.37;99906.25;1749819;82;21872;-82
2023/05/24 18:56:47;;;;;;;17.80;6.72;;;;;;;20.20;81.61;99907.95;1750012;82;21322;-83
2023/05/24 18:59:47;;;;;;;19.00;6.08;;;;;;;20.15;82.37;99914.80;1748754;82;21330;-82
2023/05/24 19:02:54;;;;;;;17.42;6.83;;;;;;;20.21;82.54;99913.79;1748573;82;21309;-82
2023/05/24 19:06:00;;;;;;;26.95;6.55;;;;;;;20.04;83.44;99915.16;1748735;82;21259;-82
2023/05/24 19:09:06;;;;;;;14.83;6.28;;;;;;;20.29;82.61;99920.34;1749235;82;21278;-82
2023/05/24 19:12:11;;;;;;;19.80;6.67;;;;;;;20.19;82.76;99923.48;1749924;82;21310;-83
2023/05/24 19:15:17;;;;;;;15.75;6.37;;;;;;;20.30;82.89;99918.40;1748919;82;21369;-82
2023/05/24 19:18:23;;;;;;;20.32;6.60;;;;;;;20.32;83.13;99910.64;1749826;82;21261;-82
2023/05/24 19:21:30;;;;;;;18.80;6.83;;;;;;;19.82;85.69;99907.20;1748894;80;21828;-82
2023/05/24 19:24:34;;;;;;;20.75;6.72;;;;;;;19.86;86.12;99905.62;1748093;82;21310;-82
2023/05/24 19:27:39;;;;;;;17.65;6.28;;;;;;;19.91;86.33;99911.28;1748679;82;21310;-82
2023/05/24 19:30:47;;;;;;;19.17;6.80;;;;;;;19.72;87.34;99913.40;1747906;82;21342;-82
2023/05/24 19:33:54;;;;;;;17.52;6.67;;;;;;;19.88;87.85;99910.37;1748475;82;21400;-82
2023/05/24 19:37:00;;;;;;;13.55;5.55;;;;;;;19.67;89.18;99906.36;1748440;82;21266;-83
2023/05/24 19:40:06;;;;;;;13.05;5.58;;;;;;;19.78;89.32;99906.02;1747563;82;21850;-82
2023/05/24 19:43:13;;;;;;;16.50;6.28;;;;;;;19.85;89.02;99911.70;1747200;82;21306;-83
2023/05/24 19:46:20;;;;;;;12.88;5.80;;;;;;;19.66;90.14;99915.20;1747280;82;21274;-83
2023/05/24 19:49:25;;;;;;;16.77;7.08;;;;;;;19.55;90.99;99917.44;1748161;82;21338;-83
2023/05/24 19:52:30;;;;;;;16.57;6.15;;;;;;;19.60;90.83;99920.89;1748590;82;21270;-83
2023/05/24 19:55:36;;;;;;;16.55;6.53;;;;;;;19.77;90.17;99924.59;1747449;82;21286;-82
2023/05/24 19:58:43;;;;;;;20.77;6.58;;;;;;;19.61;90.17;99917.86;1748595;82;21336;-82
2023/05/24 20:01:50;;;;;;;12.88;5.90;;;;;;;19.62;90.23;99922.90;1748667;82;21688;-83
2023/05/24 20:04:57;;;;;;;16.17;5.75;;;;;;;19.56;90.59;99923.83;1747999;82;21863;-82
2023/05/24 20:08:03;;;;;;;18.90;6.08;;;;;;;19.69;90.21;99921.36;1748702;82;21301;-81
2023/05/24 20:11:10;;;;;;;13.72;5.90;;;;;;;19.64;90.05;99922.09;1748640;82;21835;-83
2023/05/24 20:14:16;;;;;;;10.10;5.80;;;;;;;19.76;90.12;99921.53;1748190;82;21305;-83
2023/05/24 20:17:22;;;;;;;14.53;6.00;;;;;;;19.42;91.45;99913.53;1748709;82;21326;-83
2023/05/24 20:20:29;;;;;;;19.92;6.00;;;;;;;19.50;91.04;99915.94;1747433;82;21310;-83
2023/05/24 20:23:36;;;;;;;13.00;5.30;;;;;;;19.44;91.23;99918.31;1748016;81;21802;-82
2023/05/24 20:26:42;;;;;;;12.70;5.83;;;;;;;19.49;91.38;99907.88;1747345;82;21329;-82
2023/05/24 20:29:49;;;;;;;14.20;6.50;;;;;;;19.36;92.01;99906.20;1747918;82;21353;-82
2023/05/24 20:32:55;;;;;;;14.33;6.55;;;;;;;19.22;92.47;99897.30;1748662;82;21305;-82
2023/05/24 20:36:02;;;;;;;17.80;6.45;;;;;;;19.25;92.23;99905.69;1747956;82;21309;-83
2023/05/24 20:39:07;;;;;;;12.78;6.22;;;;;;;19.38;90.97;99904.02;1748315;82;21293;-82
2023/05/24 20:42:13;;;;;;;14.40;5.85;;;;;;;19.36;90.86;99902.04;1748605;82;21283;-83
2023/05/24 20:45:18;;;;;;;16.90;6.22;;;;;;;19.32;90.64;99900.84;1747570;82;21321;-82
2023/05/24 20:48:25;;;;;;;14.28;5.97;;;;;;;19.18;90.99;99904.41;1747312;82;21342;-82
2023/05/24 20:51:30;;;;;;;11.38;6.05;;;;;;;19.27;91.22;99903.50;1747119;82;21831;-82
2023/05/24 20:54:36;;;;;;;13.48;5.42;;;;;;;19.39;88.99;99900.18;1748000;82;21866;-81
2023/05/24 20:57:43;;;;;;;13.22;5.42;;;;;;;19.22;89.79;99896.45;1748543;82;21271;-82
2023/05/24 21:00:51;;;;;;;11.85;4.95;;;;;;;19.39;89.12;99894.09;1747939;82;21345;-82
2023/05/24 21:03:56;;;;;;;14.53;4.85;;;;;;;19.32;88.57;99901.67;1747418;82;21305;-82
2023/05/24 21:07:03;;;;;;;13.25;5.28;;;;;;;19.51;87.19;99894.59;1747614;82;21309;-83
2023/05/24 21:10:08;;;;;;;12.30;5.55;;;;;;;19.25;87.26;99890.44;1747691;82;21306;-82
2023/05/24 21:13:14;;;;;;;8.63;4.35;;;;;;;19.32;86.37;99886.42;1748598;82;21831;-82
2023/05/24 21:16:21;;;;;;;15.65;4.90;;;;;;;19.41;85.06;99887.73;1748684;82;21282;-83
2023/05/24 21:19:27;;;;;;;16.95;4.85;;;;;;;19.73;83.00;99883.72;1748124;82;21897;-82
2023/05/24 21:22:33;;;;;;;14.15;5.28;;;;;;;19.73;82.31;99881.78;1747281;82;21700;-81
2023/05/24 21:25:39;;;;;;;16.20;5.22;;;;;;;19.73;82.44;99879.55;1747251;82;21952;-83
2023/05/24 21:28:45;;;;;;;12.00;4.50;;;;;;;19.63;82.59;99884.35;1747161;82;21302;-84
2023/05/24 21:31:51;;;;;;;14.28;5.25;;;;;;;19.75;82.31;99889.84;1747391;82;21306;-82
2023/05/24 21:34:57;;;;;;;15.68;5.15;;;;;;;19.87;81.42;99896.20;1747784;82;21282;-83
2023/05/24 21:38:03;;;;;;;14.73;5.60;;;;;;;18.87;86.35;99897.33;1748485;82;21325;-82
2023/05/24 21:41:03;;;;;;;12.70;5.75;;;;;;;18.92;86.19;99896.06;1747282;82;21334;-82
2023/05/24 21:44:11;;;;;;;21.15;6.70;;;;;;;18.81;86.17;99889.95;1748128;82;21294;-83
2023/05/24 21:47:17;;;;;;;12.05;6.40;;;;;;;18.83;86.65;99882.27;1748429;82;21302;-83
2023/05/24 21:50:22;;;;;;;13.48;6.75;;;;;;;18.63;87.61;99886.20;1747273;82;21858;-83
2023/05/24 21:53:27;;;;;;;16.57;6.85;;;;;;;18.61;87.90;99877.81;1748709;82;21310;-82
2023/05/24 21:56:33;;;;;;;11.65;6.20;;;;;;;18.77;87.60;99878.53;1748497;82;21286;-83
2023/05/24 21:59:39;;;;;;;17.12;6.92;;;;;;;18.80;87.49;99882.73;1747790;82;21913;-82
2023/05/24 22:02:45;;;;;;;13.93;6.10;;;;;;;18.63;88.14;99879.28;1747336;82;21301;-83
2023/05/24 22:05:44;;;;;;;15.38;6.55;;;;;;;18.51;88.98;99876.19;1748519;82;21302;-84
2023/05/24 22:08:49;;;;;;;15.20;6.37;;;;;;;18.63;88.72;99883.43;1748461;82;22243;-81
2023/05/24 22:11:55;;;;;;;17.05;6.55;;;;;;;18.39;89.42;99876.15;1747776;82;21326;-82
2023/05/24 22:15:01;;;;;;;17.50;6.35;;;;;;;18.67;88.53;99871.85;1747597;82;21882;-82
2023/05/24 22:18:07;;;;;;;15.30;6.85;;;;;;;18.74;88.32;99881.78;1748471;82;21282;-82
2023/05/24 22:21:14;;;;;;;18.07;7.35;;;;;;;18.68;88.08;99876.30;1748332;82;21333;-83
2023/05/24 22:24:20;;;;;;;20.57;6.97;;;;;;;18.60;88.73;99878.36;1749997;81;21302;-82
2023/05/24 22:27:26;;;;;;;17.48;6.65;;;;;;;18.60;88.65;99878.91;1759967;81;21736;-82
2023/05/24 22:30:33;;;;;;;14.47;6.65;;;;;;;18.86;87.64;99877.61;1758573;81;21323;-82
2023/05/24 22:33:40;;;;;;;16.45;6.78;;;;;;;18.68;88.03;99874.41;1759697;81;21180;-83
2023/05/24 22:36:47;;;;;;;17.55;7.30;;;;;;;18.72;87.96;99883.09;1758390;81;21311;-82
2023/05/24 22:39:53;;;;;;;11.40;6.58;;;;;;;18.86;87.42;99876.22;1758926;81;21294;-81
2023/05/24 22:43:00;;;;;;;12.80;6.37;;;;;;;18.27;90.38;99874.75;1758731;81;21312;-82
2023/05/24 22:46:05;;;;;;;11.93;5.92;;;;;;;18.21;91.12;99874.84;1759801;81;21161;-82
2023/05/24 22:49:13;;;;;;;12.88;6.37;;;;;;;18.46;90.00;99867.20;1759424;81;22183;-81
2023/05/24 22:52:20;;;;;;;16.95;6.03;;;;;;;18.70;88.92;99876.41;1759318;81;21867;-82
2023/05/24 22:55:25;;;;;;;12.70;6.10;;;;;;;18.74;88.74;99879.55;1758641;81;21306;-81
2023/05/24 22:58:32;;;;;;;16.50;6.65;;;;;;;18.49;88.65;99880.59;1759812;81;21176;-82
2023/05/24 23:01:38;;;;;;;14.20;6.15;;;;;;;18.54;88.82;99892.33;1759804;81;21204;-83
2023/05/24 23:04:45;;;;;;;13.10;6.33;;;;;;;18.69;88.61;99898.28;1759023;81;21289;-81
2023/05/24 23:07:47;;;;;;;12.73;6.72;;;;;;;18.72;87.96;99895.55;1758550;81;21299;-83
2023/05/24 23:10:52;;;;;;;14.73;6.33;;;;;;;18.48;88.94;99898.26;1759831;81;21160;-81
2023/05/24 23:13:59;;;;;;;13.18;6.70;;;;;;;18.27;90.48;99894.13;1758542;81;21219;-83
2023/05/24 23:17:05;;;;;;;12.78;6.72;;;;;;;18.37;90.59;99891.63;1758372;81;21303;-83
2023/05/24 23:20:13;;;;;;;16.90;7.00;;;;;;;18.49;91.07;99900.48;1758852;81;22255;-83
2023/05/24 23:23:20;;;;;;;13.98;7.03;;;;;;;18.52;91.05;99901.41;1758790;81;21315;-81
2023/05/24 23:26:26;;;;;;;11.93;6.62;;;;;;;18.83;89.30;99905.81;1753211;81;21294;-82
2023/05/24 23:29:32;;;;;;;17.52;7.42;;;;;;;18.86;88.26;99902.55;1748512;82;21842;-83
2023/05/24 23:32:39;;;;;;;16.02;7.12;;;;;;;18.90;89.10;99905.98;1748632;82;21334;-82
2023/05/24 23:35:46;;;;;;;14.95;7.33;;;;;;;18.83;88.81;99909.97;1750228;82;21709;-83
2023/05/24 23:38:47;;;;;;;20.45;8.08;;;;;;;18.59;90.08;99915.45;1749330;82;21321;-81